createdAt,value
2018-12-18T00:01:24.155Z,6.60
2018-12-18T00:04:15.034Z,7.47
2018-12-18T00:09:42.602Z,6.20
2018-12-18T00:12:25.028Z,7.63
2018-12-18T00:14:55.386Z,7.77
2018-12-18T00:17:37.812Z,7.73
2018-12-18T00:20:14.521Z,10.77
2018-12-18T00:22:48.418Z,8.97
2018-12-18T00:25:25.153Z,6.83
2018-12-18T00:28:02.586Z,7.40
2018-12-18T00:30:42.650Z,6.40
2018-12-18T00:33:16.888Z,9.33
2018-12-18T00:35:48.621Z,10.37
2018-12-18T00:38:24.492Z,10.23
2018-12-18T00:41:06.525Z,6.27
2018-12-18T00:43:40.246Z,9.27
2018-12-18T00:46:12.263Z,8.07
2018-12-18T00:48:52.193Z,7.07
2018-12-18T00:51:35.230Z,6.30
2018-12-18T00:54:08.762Z,6.50
2018-12-18T00:56:52.941Z,7.40
2018-12-18T00:59:23.322Z,8.13
2018-12-18T01:02:00.485Z,7.03
2018-12-18T01:04:37.474Z,8.37
2018-12-18T01:07:07.954Z,7.03
2018-12-18T01:09:44.980Z,11.10
2018-12-18T01:12:19.165Z,7.00
2018-12-18T01:14:55.255Z,11.13
2018-12-18T01:17:38.187Z,9.73
2018-12-18T01:20:11.612Z,8.37
2018-12-18T01:22:45.118Z,8.30
2018-12-18T01:25:15.488Z,8.57
2018-12-18T01:27:45.846Z,10.37
2018-12-18T01:30:16.205Z,8.17
2018-12-18T01:32:52.405Z,7.03
2018-12-18T01:35:22.772Z,10.20
2018-12-18T01:37:58.574Z,7.33
2018-12-18T01:40:38.702Z,9.03
2018-12-18T01:43:12.911Z,7.43
2018-12-18T01:45:49.075Z,13.27
2018-12-18T01:48:19.436Z,9.47
2018-12-18T01:51:01.954Z,9.75
2018-12-18T01:53:35.409Z,9.30
2018-12-18T01:56:06.786Z,8.83
2018-12-18T01:58:44.228Z,6.77
2018-12-18T02:01:30.755Z,6.27
2018-12-18T02:04:05.893Z,9.70
2018-12-18T02:06:41.266Z,12.87
2018-12-18T02:09:17.667Z,6.70
2018-12-18T02:11:54.319Z,8.73
2018-12-18T02:14:30.565Z,8.77
2018-12-18T02:17:07.136Z,8.17
2018-12-18T02:19:41.367Z,8.60
2018-12-18T02:22:15.020Z,10.30
2018-12-18T02:24:51.053Z,9.37
2018-12-18T02:27:31.328Z,7.90
2018-12-18T02:30:05.837Z,10.93
2018-12-18T02:32:39.297Z,9.03
2018-12-18T02:35:09.669Z,12.23
2018-12-18T02:37:52.397Z,8.23
2018-12-18T02:40:32.826Z,9.43
2018-12-18T02:43:08.543Z,11.37
2018-12-18T02:45:44.359Z,10.23
2018-12-18T02:48:20.591Z,10.73
2018-12-18T02:50:56.961Z,9.57
2018-12-18T02:53:37.329Z,9.63
2018-12-18T02:56:20.238Z,11.53
2018-12-18T02:58:53.652Z,8.83
2018-12-18T03:01:29.712Z,13.87
2018-12-18T03:04:07.883Z,12.97
2018-12-18T03:06:50.648Z,8.53
2018-12-18T03:09:21.090Z,8.50
2018-12-18T03:12:00.773Z,10.03
2018-12-18T03:14:42.896Z,13.80
2018-12-18T03:17:22.583Z,15.43
2018-12-18T03:19:59.281Z,12.07
2018-12-18T03:22:35.557Z,9.30
2018-12-18T03:25:16.491Z,13.90
2018-12-18T03:27:46.848Z,11.27
2018-12-18T03:30:17.226Z,12.00
2018-12-18T03:32:49.231Z,13.77
2018-12-18T03:35:23.306Z,8.73
2018-12-18T03:37:55.195Z,12.60
2018-12-18T03:40:27.830Z,8.70
2018-12-18T03:43:05.399Z,11.60
2018-12-18T03:45:39.402Z,8.53
2018-12-18T03:48:22.007Z,11.43
2018-12-18T03:50:52.367Z,10.40
2018-12-18T03:53:24.350Z,12.47
2018-12-18T03:56:00.245Z,8.70
2018-12-18T03:58:30.643Z,8.07
2018-12-18T04:01:10.678Z,7.73
2018-12-18T04:03:46.684Z,9.47
2018-12-18T04:06:17.037Z,6.70
2018-12-18T04:08:59.625Z,8.33
2018-12-18T04:11:29.983Z,7.73
2018-12-18T04:14:04.136Z,6.73
2018-12-18T04:16:40.436Z,11.10
2018-12-18T04:22:11.386Z,16.80
2018-12-18T04:24:41.750Z,10.73
2018-12-18T04:27:12.105Z,9.13
2018-12-18T04:29:45.704Z,6.27
2018-12-18T04:32:16.073Z,8.63
2018-12-18T04:34:53.698Z,7.53
2018-12-18T04:40:27.163Z,7.50
2018-12-18T04:46:01.695Z,7.00
2018-12-18T04:48:32.163Z,6.43
2018-12-18T04:51:02.618Z,8.93
2018-12-18T04:53:33.000Z,8.00
2018-12-18T04:56:03.493Z,8.27
2018-12-18T04:58:33.855Z,9.93
2018-12-18T05:01:04.236Z,9.48
2018-12-18T05:06:57.290Z,9.33
2018-12-18T05:09:33.340Z,10.37
2018-12-18T05:12:13.378Z,9.60
2018-12-18T05:14:47.738Z,9.43
2018-12-18T05:17:18.112Z,10.70
2018-12-18T05:19:56.704Z,9.47
2018-12-18T05:22:34.071Z,7.53
2018-12-18T05:25:17.026Z,11.10
2018-12-18T05:27:59.537Z,10.27
2018-12-18T05:30:35.475Z,9.53
2018-12-18T05:33:11.845Z,10.43
2018-12-18T05:35:46.027Z,11.07
2018-12-18T05:38:16.494Z,9.73
2018-12-18T05:41:02.850Z,11.53
2018-12-18T05:43:36.643Z,12.87
2018-12-18T05:46:14.613Z,15.00
2018-12-18T05:48:58.650Z,14.03
2018-12-18T05:51:28.996Z,15.93
2018-12-18T05:53:59.357Z,9.90
2018-12-18T05:56:29.730Z,13.23
2018-12-18T05:59:00.082Z,13.47
2018-12-18T06:01:30.658Z,12.53
2018-12-18T06:04:01.305Z,14.13
2018-12-18T06:06:31.766Z,10.80
2018-12-18T06:09:02.126Z,14.07
2018-12-18T06:11:34.209Z,12.97
2018-12-18T06:14:04.651Z,14.20
2018-12-18T06:16:35.015Z,10.80
2018-12-18T06:19:05.367Z,10.20
2018-12-18T06:21:35.724Z,13.47
2018-12-18T06:24:06.168Z,11.27
2018-12-18T06:26:36.524Z,17.43
2018-12-18T06:29:06.884Z,13.00
2018-12-18T06:31:37.245Z,12.87
2018-12-18T06:34:07.879Z,10.73
2018-12-18T06:36:38.238Z,11.83
2018-12-18T06:39:08.589Z,12.77
2018-12-18T06:41:38.956Z,14.10
2018-12-18T06:44:09.306Z,12.07
2018-12-18T06:46:39.659Z,15.57
2018-12-18T06:49:10.021Z,14.53
2018-12-18T06:51:40.658Z,12.15
2018-12-18T06:54:12.172Z,13.93
2018-12-18T06:56:42.524Z,11.50
2018-12-18T06:59:12.929Z,11.77
2018-12-18T07:01:43.286Z,9.07
2018-12-18T07:04:13.645Z,12.87
2018-12-18T07:06:44.008Z,12.77
2018-12-18T07:09:14.392Z,13.77
2018-12-18T07:11:44.809Z,10.20
2018-12-18T07:14:15.673Z,11.17
2018-12-18T07:16:58.025Z,13.53
2018-12-18T07:19:28.411Z,22.33
2018-12-18T07:21:58.800Z,20.83
2018-12-18T07:24:29.189Z,20.33
2018-12-18T07:26:59.608Z,19.17
2018-12-18T07:29:30.001Z,18.47
2018-12-18T07:32:00.494Z,18.40
2018-12-18T07:34:33.475Z,16.87
2018-12-18T07:37:03.446Z,17.07
2018-12-18T07:39:33.844Z,19.37
2018-12-18T07:42:04.338Z,17.30
2018-12-18T07:44:34.731Z,18.50
2018-12-18T07:47:05.149Z,15.60
2018-12-18T07:49:35.508Z,19.93
2018-12-18T07:52:05.904Z,18.93
2018-12-18T07:54:36.624Z,20.80
2018-12-18T07:57:07.018Z,24.67
2018-12-18T07:59:37.391Z,15.43
2018-12-18T08:02:07.830Z,18.87
2018-12-18T08:04:38.200Z,15.83
2018-12-18T08:07:08.597Z,17.77
2018-12-18T08:09:38.967Z,17.27
2018-12-18T08:12:09.599Z,16.17
2018-12-18T08:14:39.976Z,14.83
2018-12-18T08:17:10.342Z,16.50
2018-12-18T08:19:40.737Z,13.73
2018-12-18T08:22:11.379Z,14.40
2018-12-18T08:24:41.758Z,18.83
2018-12-18T08:27:12.401Z,16.67
2018-12-18T08:29:42.778Z,15.50
2018-12-18T08:32:13.146Z,19.10
2018-12-18T08:34:43.528Z,17.23
2018-12-18T08:37:13.889Z,15.87
2018-12-18T08:39:45.165Z,17.40
2018-12-18T08:42:15.529Z,16.53
2018-12-18T08:44:45.915Z,12.87
2018-12-18T08:47:16.308Z,16.83
2018-12-18T08:49:46.671Z,15.10
2018-12-18T08:52:17.108Z,18.80
2018-12-18T08:54:48.352Z,13.93
2018-12-18T08:57:18.702Z,16.47
2018-12-18T08:59:49.157Z,16.67
2018-12-18T09:02:19.504Z,16.03
2018-12-18T09:04:49.865Z,15.87
2018-12-18T09:07:20.246Z,14.40
2018-12-18T09:09:50.694Z,16.03
2018-12-18T09:12:21.081Z,14.17
2018-12-18T09:14:57.514Z,15.73
2018-12-18T09:17:34.215Z,16.20
2018-12-18T09:20:05.252Z,14.67
2018-12-18T09:22:35.625Z,14.77
2018-12-18T09:25:06.169Z,15.13
2018-12-18T09:27:36.610Z,11.83
2018-12-18T09:30:09.097Z,14.90
2018-12-18T09:32:39.543Z,13.37
2018-12-18T09:35:09.881Z,11.27
2018-12-18T09:37:40.233Z,11.43
2018-12-18T09:40:10.395Z,10.40
2018-12-18T09:42:47.250Z,12.07
2018-12-18T09:45:17.584Z,16.73
2018-12-18T09:47:47.935Z,9.57
2018-12-18T09:50:18.300Z,10.93
2018-12-18T09:52:48.842Z,7.87
2018-12-18T09:55:19.238Z,9.80
2018-12-18T09:57:54.952Z,7.73
2018-12-18T10:00:25.314Z,11.37
2018-12-18T10:02:55.675Z,9.50
2018-12-18T10:05:26.044Z,10.27
2018-12-18T10:07:56.408Z,12.13
2018-12-18T10:10:26.755Z,9.97
2018-12-18T10:12:57.175Z,8.37
2018-12-18T10:15:27.873Z,8.97
2018-12-18T10:17:58.279Z,11.63
2018-12-18T10:20:28.636Z,8.90
2018-12-18T10:22:59.856Z,11.90
2018-12-18T10:25:30.204Z,10.30
2018-12-18T10:28:01.998Z,9.50
2018-12-18T10:30:32.365Z,11.37
2018-12-18T10:33:04.596Z,9.33
2018-12-18T10:35:36.774Z,9.30
2018-12-18T10:38:08.693Z,10.37
2018-12-18T10:40:39.416Z,12.57
2018-12-18T10:43:09.904Z,10.37
2018-12-18T10:45:40.357Z,12.53
2018-12-18T10:48:10.839Z,10.80
2018-12-18T10:50:47.363Z,12.13
2018-12-18T10:53:18.748Z,11.53
2018-12-18T10:55:49.122Z,11.67
2018-12-18T10:58:23.989Z,11.13
2018-12-18T11:00:57.438Z,10.20
2018-12-18T11:03:27.848Z,10.97
2018-12-18T11:05:58.199Z,12.43
2018-12-18T11:08:29.549Z,10.10
2018-12-18T11:10:59.925Z,12.77
2018-12-18T11:13:30.278Z,12.97
2018-12-18T11:16:00.638Z,14.30
2018-12-18T11:18:30.998Z,9.80
2018-12-18T11:21:01.365Z,9.60
2018-12-18T11:23:31.833Z,15.43
2018-12-18T11:26:02.204Z,9.57
2018-12-18T11:28:33.667Z,10.20
2018-12-18T11:31:04.012Z,9.33
2018-12-18T11:33:34.382Z,10.93
2018-12-18T11:36:04.742Z,11.13
2018-12-18T11:38:35.093Z,10.40
2018-12-18T11:41:05.454Z,9.70
2018-12-18T11:43:35.819Z,8.30
2018-12-18T11:46:06.288Z,10.50
2018-12-18T11:48:36.646Z,9.30
2018-12-18T11:51:07.397Z,7.47
2018-12-18T11:53:37.742Z,7.70
2018-12-18T11:56:08.199Z,8.90
2018-12-18T11:58:38.559Z,15.83
2018-12-18T12:01:08.930Z,10.40
2018-12-18T12:03:39.322Z,10.43
2018-12-18T12:06:11.402Z,9.30
2018-12-18T12:08:41.764Z,10.00
2018-12-18T12:11:12.109Z,8.20
2018-12-18T12:13:42.665Z,13.90
2018-12-18T12:19:24.092Z,15.07
2018-12-18T12:21:54.464Z,9.53
2018-12-18T12:24:24.852Z,8.90
2018-12-18T12:26:59.979Z,11.20
2018-12-18T12:29:36.548Z,10.07
2018-12-18T12:32:13.161Z,7.13
2018-12-18T12:34:50.502Z,8.87
2018-12-18T12:37:27.240Z,9.40
2018-12-18T12:39:57.711Z,11.87
2018-12-18T12:42:39.233Z,9.67
2018-12-18T12:45:21.825Z,8.27
2018-12-18T12:47:53.154Z,10.40
2018-12-18T12:50:33.125Z,8.67
2018-12-18T12:53:14.075Z,7.00
2018-12-18T12:55:50.438Z,7.20
2018-12-18T12:58:26.969Z,8.80
2018-12-18T13:01:03.265Z,6.90
2018-12-18T13:03:40.053Z,7.60
2018-12-18T13:06:20.385Z,7.43
2018-12-18T13:08:56.540Z,8.53
2018-12-18T13:11:36.186Z,8.60
2018-12-18T13:14:16.368Z,6.97
2018-12-18T13:16:52.825Z,9.17
2018-12-18T13:19:29.429Z,7.83
2018-12-18T13:22:05.388Z,7.20
2018-12-18T13:24:37.389Z,7.53
2018-12-18T13:27:13.635Z,6.97
2018-12-18T13:29:50.421Z,7.43
2018-12-18T13:32:26.943Z,5.63
2018-12-18T13:34:59.129Z,6.53
2018-12-18T13:37:32.625Z,5.30
2018-12-18T13:40:08.510Z,3.77
2018-12-18T13:42:38.936Z,3.77
2018-12-18T13:45:09.299Z,5.33
2018-12-18T13:47:39.659Z,4.20
2018-12-18T13:50:10.017Z,2.97
2018-12-18T13:52:40.388Z,3.30
2018-12-18T13:55:10.885Z,7.17
2018-12-18T13:57:46.732Z,4.00
2018-12-18T14:00:17.079Z,4.07
2018-12-18T14:02:47.714Z,3.03
2018-12-18T14:05:18.078Z,3.33
2018-12-18T14:07:48.425Z,2.57
2018-12-18T14:10:18.783Z,3.67
2018-12-18T14:15:52.258Z,5.03
2018-12-18T14:18:22.623Z,4.60
2018-12-18T14:20:52.970Z,4.57
2018-12-18T14:23:23.332Z,2.87
2018-12-18T14:25:55.527Z,4.27
2018-12-18T14:28:25.892Z,4.43
2018-12-18T14:30:56.257Z,3.10
2018-12-18T14:33:26.604Z,4.30
2018-12-18T14:35:56.972Z,6.93
2018-12-18T14:38:28.300Z,5.87
2018-12-18T14:40:58.670Z,4.90
2018-12-18T14:43:29.107Z,5.60
2018-12-18T14:45:59.453Z,5.47
2018-12-18T14:48:29.820Z,5.67
2018-12-18T14:51:00.189Z,5.87
2018-12-18T14:53:30.622Z,10.20
2018-12-18T14:56:03.374Z,4.90
2018-12-18T14:58:34.087Z,4.70
2018-12-18T15:01:04.449Z,5.67
2018-12-18T15:03:34.820Z,5.80
2018-12-18T15:06:05.207Z,5.90
2018-12-18T15:08:35.608Z,4.63
2018-12-18T15:11:05.967Z,3.97
2018-12-18T15:13:36.311Z,4.70
2018-12-18T15:16:06.676Z,5.57
2018-12-18T15:18:37.020Z,6.53
2018-12-18T15:21:07.366Z,6.43
2018-12-18T15:23:37.709Z,4.63
2018-12-18T15:26:08.086Z,4.97
2018-12-18T15:28:38.429Z,4.17
2018-12-18T15:31:08.801Z,4.83
2018-12-18T15:33:39.142Z,4.07
2018-12-18T15:36:09.515Z,4.93
2018-12-18T15:38:39.867Z,6.10
2018-12-18T15:41:10.222Z,8.60
2018-12-18T15:43:40.575Z,3.60
2018-12-18T15:46:10.967Z,3.60
2018-12-18T15:48:41.407Z,5.17
2018-12-18T15:51:17.625Z,5.40
2018-12-18T15:53:48.074Z,4.57
2018-12-18T15:56:18.581Z,3.63
2018-12-18T15:58:48.944Z,5.97
2018-12-18T16:01:19.374Z,5.70
2018-12-18T16:03:49.721Z,8.57
2018-12-18T16:06:20.118Z,5.50
2018-12-18T16:08:50.474Z,15.00
2018-12-18T16:11:20.831Z,5.97
2018-12-18T16:13:51.172Z,8.57
2018-12-18T16:16:27.672Z,6.10
2018-12-18T16:19:03.685Z,5.17
2018-12-18T16:21:57.508Z,4.23
2018-12-18T16:24:33.848Z,5.37
2018-12-18T16:27:10.272Z,5.10
2018-12-18T16:32:35.526Z,5.87
2018-12-18T16:35:06.006Z,7.80
2018-12-18T16:37:48.629Z,6.23
2018-12-18T16:40:26.254Z,8.43
2018-12-18T16:43:02.679Z,6.20
2018-12-18T16:45:44.883Z,4.20
2018-12-18T16:48:21.597Z,5.83
2018-12-18T16:57:00.320Z,8.40
2018-12-18T16:59:54.054Z,10.23
2018-12-18T17:02:24.509Z,9.33
2018-12-18T17:04:54.874Z,10.13
2018-12-18T17:07:29.536Z,11.43
2018-12-18T17:09:57.706Z,8.97
2018-12-18T17:12:28.069Z,9.97
2018-12-18T17:14:58.425Z,8.23
2018-12-18T17:17:29.801Z,10.53
2018-12-18T17:20:00.175Z,9.37
2018-12-18T17:22:30.755Z,8.33
2018-12-18T17:25:01.142Z,6.33
2018-12-18T17:27:31.506Z,5.80
2018-12-18T17:30:02.049Z,5.07
2018-12-18T17:32:33.504Z,9.70
2018-12-18T17:35:11.554Z,8.27
2018-12-18T17:37:41.925Z,5.40
2018-12-18T17:40:12.302Z,6.30
2018-12-18T17:42:42.700Z,12.83
2018-12-18T17:45:13.560Z,8.53
2018-12-18T17:47:44.015Z,7.50
2018-12-18T17:50:14.361Z,10.77
2018-12-18T17:52:44.731Z,8.93
2018-12-18T17:55:15.118Z,10.30
2018-12-18T17:57:45.705Z,8.03
2018-12-18T18:00:16.064Z,7.83
2018-12-18T18:02:46.419Z,7.83
2018-12-18T18:05:16.778Z,13.23
2018-12-18T18:07:47.158Z,6.87
2018-12-18T18:10:17.516Z,18.30
2018-12-18T18:15:53.469Z,8.70
2018-12-18T18:18:23.873Z,10.37
2018-12-18T18:20:54.238Z,6.60
2018-12-18T18:23:24.583Z,9.07
2018-12-18T18:25:55.290Z,9.60
2018-12-18T18:28:25.763Z,7.33
2018-12-18T18:30:56.143Z,7.67
2018-12-18T18:33:40.814Z,11.33
2018-12-18T18:36:11.165Z,5.93
2018-12-18T18:38:41.544Z,6.93
2018-12-18T18:41:11.904Z,7.03
2018-12-18T18:43:42.276Z,9.33
2018-12-18T18:46:24.304Z,13.10
2018-12-18T18:49:10.926Z,16.30
2018-12-18T18:51:41.299Z,9.50
2018-12-18T18:54:11.841Z,10.63
2018-12-18T18:56:42.229Z,6.40
2018-12-18T18:59:12.618Z,7.83
2018-12-18T19:01:42.981Z,7.17
2018-12-18T19:04:13.382Z,7.73
2018-12-18T19:09:43.066Z,9.77
2018-12-18T19:12:16.662Z,10.33
2018-12-18T19:18:02.208Z,8.10
2018-12-18T19:20:40.246Z,9.23
2018-12-18T19:23:10.604Z,8.83
2018-12-18T19:28:42.597Z,9.80
2018-12-18T19:34:17.351Z,9.50
2018-12-18T19:37:09.609Z,9.00
2018-12-18T19:39:40.252Z,8.73
2018-12-18T19:42:22.876Z,8.77
2018-12-18T19:44:53.430Z,9.30
2018-12-18T19:47:23.836Z,7.53
2018-12-18T19:50:06.069Z,9.57
2018-12-18T19:52:36.441Z,10.70
2018-12-18T19:55:06.993Z,9.87
2018-12-18T20:00:49.771Z,6.90
2018-12-18T20:06:23.516Z,8.57
2018-12-18T20:09:01.460Z,10.50
2018-12-18T20:11:43.449Z,8.90
2018-12-18T20:14:33.263Z,7.73
2018-12-18T20:17:09.376Z,8.93
2018-12-18T20:19:47.896Z,9.57
2018-12-18T20:22:24.906Z,11.27
2018-12-18T20:25:07.112Z,11.53
2018-12-18T20:34:09.621Z,10.37
2018-12-18T20:39:55.325Z,10.60
2018-12-18T20:42:35.206Z,7.77
2018-12-18T20:45:17.798Z,10.07
2018-12-18T20:50:48.737Z,8.60
2018-12-18T20:53:22.320Z,8.40
2018-12-18T20:58:53.436Z,10.60
2018-12-18T21:01:23.881Z,12.57
2018-12-18T21:03:54.254Z,9.30
2018-12-18T21:06:24.770Z,10.00
2018-12-18T21:08:55.195Z,12.90
2018-12-18T21:11:25.568Z,9.43
2018-12-18T21:13:55.922Z,10.57
2018-12-18T21:16:26.342Z,9.73
2018-12-18T21:18:56.742Z,9.93
2018-12-18T21:21:27.080Z,8.30
2018-12-18T21:23:57.581Z,9.43
2018-12-18T21:26:28.019Z,12.43
2018-12-18T21:29:01.319Z,17.90
2018-12-18T21:31:31.795Z,10.77
2018-12-18T21:34:02.162Z,10.43
2018-12-18T21:36:32.607Z,11.90
2018-12-18T21:39:03.282Z,11.47
2018-12-18T21:41:35.364Z,11.00
2018-12-18T21:44:05.886Z,10.03
2018-12-18T21:46:36.322Z,10.20
2018-12-18T21:49:06.672Z,9.00
2018-12-18T21:51:37.120Z,11.03
2018-12-18T21:54:07.492Z,8.87
2018-12-18T21:56:38.288Z,8.10
2018-12-18T21:59:08.788Z,10.13
2018-12-18T22:01:40.110Z,10.70
2018-12-18T22:04:10.479Z,8.53
2018-12-18T22:06:41.139Z,10.57
2018-12-18T22:09:11.636Z,8.03
2018-12-18T22:11:43.225Z,12.13
2018-12-18T22:14:13.620Z,8.07
2018-12-18T22:16:44.048Z,10.83
2018-12-18T22:19:14.635Z,12.73
2018-12-18T22:21:45.004Z,10.37
2018-12-18T22:24:16.023Z,12.87
2018-12-18T22:26:46.423Z,10.73
2018-12-18T22:29:16.824Z,10.20
2018-12-18T22:31:47.199Z,10.67
2018-12-18T22:34:17.588Z,11.37
2018-12-18T22:36:47.958Z,8.80
2018-12-18T22:39:19.299Z,10.80
2018-12-18T22:41:49.677Z,12.17
2018-12-18T22:44:20.228Z,11.13
2018-12-18T22:46:50.585Z,12.67
2018-12-18T22:49:20.988Z,11.93
2018-12-18T22:51:51.411Z,11.97
2018-12-18T22:54:22.846Z,10.37
2018-12-18T22:56:53.233Z,12.73
2018-12-18T22:59:24.509Z,11.03
2018-12-18T23:01:54.885Z,7.97
2018-12-18T23:04:25.437Z,12.40
2018-12-18T23:06:55.788Z,8.80
2018-12-18T23:09:26.364Z,8.53
2018-12-18T23:11:56.719Z,8.23
2018-12-18T23:14:27.159Z,10.73
2018-12-18T23:16:57.576Z,11.77
2018-12-18T23:19:27.934Z,12.50
2018-12-18T23:21:58.302Z,11.37
2018-12-18T23:24:28.799Z,11.33
2018-12-18T23:26:59.260Z,10.50
2018-12-18T23:29:29.621Z,11.60
2018-12-18T23:31:59.991Z,12.53
2018-12-18T23:34:33.100Z,11.53
2018-12-18T23:37:02.903Z,10.73
2018-12-18T23:39:33.270Z,13.00
2018-12-18T23:42:03.722Z,11.77
2018-12-18T23:44:35.274Z,11.40
2018-12-18T23:47:05.641Z,12.70
2018-12-18T23:49:36.007Z,12.77
2018-12-18T23:52:06.374Z,13.63
2018-12-18T23:54:36.746Z,13.70
2018-12-18T23:57:07.111Z,14.67
2018-12-18T23:59:37.468Z,10.80
